sensor_id;sensor_type;location;lat;lon;timestamp;P1;durP1;ratioP1;P2;durP2;ratioP2
4821;SDS011;2425;47.794;13.068;2023-05-07T00:00:18;1.03;;;1.03;;
4821;SDS011;2425;47.794;13.068;2023-05-07T00:02:44;1.17;;;1.17;;
4821;SDS011;2425;47.794;13.068;2023-05-07T00:05:11;0.90;;;0.90;;
4821;SDS011;2425;47.794;13.068;2023-05-07T00:07:38;1.10;;;1.10;;
4821;SDS011;2425;47.794;13.068;2023-05-07T00:10:07;1.00;;;1.00;;
4821;SDS011;2425;47.794;13.068;2023-05-07T00:12:34;1.00;;;1.00;;
4821;SDS011;2425;47.794;13.068;2023-05-07T00:15:01;1.40;;;1.30;;
4821;SDS011;2425;47.794;13.068;2023-05-07T00:17:29;0.80;;;0.80;;
4821;SDS011;2425;47.794;13.068;2023-05-07T00:19:56;1.10;;;1.10;;
4821;SDS011;2425;47.794;13.068;2023-05-07T00:22:22;1.30;;;1.30;;
4821;SDS011;2425;47.794;13.068;2023-05-07T00:24:49;1.10;;;1.10;;
4821;SDS011;2425;47.794;13.068;2023-05-07T00:27:17;2.67;;;1.17;;
4821;SDS011;2425;47.794;13.068;2023-05-07T00:29:44;1.17;;;1.17;;
4821;SDS011;2425;47.794;13.068;2023-05-07T00:32:11;1.50;;;1.50;;
4821;SDS011;2425;47.794;13.068;2023-05-07T00:34:37;1.07;;;1.07;;
4821;SDS011;2425;47.794;13.068;2023-05-07T00:37:04;1.03;;;1.00;;
4821;SDS011;2425;47.794;13.068;2023-05-07T00:39:32;1.27;;;1.27;;
4821;SDS011;2425;47.794;13.068;2023-05-07T00:41:59;1.00;;;1.00;;
4821;SDS011;2425;47.794;13.068;2023-05-07T00:44:27;1.20;;;1.20;;
4821;SDS011;2425;47.794;13.068;2023-05-07T00:46:54;1.10;;;1.10;;
4821;SDS011;2425;47.794;13.068;2023-05-07T00:49:22;1.07;;;1.07;;
4821;SDS011;2425;47.794;13.068;2023-05-07T00:51:49;1.83;;;1.10;;
4821;SDS011;2425;47.794;13.068;2023-05-07T00:54:16;1.00;;;1.00;;
4821;SDS011;2425;47.794;13.068;2023-05-07T00:56:43;1.10;;;1.00;;
4821;SDS011;2425;47.794;13.068;2023-05-07T00:59:10;1.00;;;1.00;;
4821;SDS011;2425;47.794;13.068;2023-05-07T01:01:38;2.00;;;1.00;;
4821;SDS011;2425;47.794;13.068;2023-05-07T01:04:05;1.30;;;0.97;;
4821;SDS011;2425;47.794;13.068;2023-05-07T01:06:32;1.13;;;1.13;;
4821;SDS011;2425;47.794;13.068;2023-05-07T01:08:59;1.10;;;1.10;;
4821;SDS011;2425;47.794;13.068;2023-05-07T01:11:26;1.10;;;1.10;;
4821;SDS011;2425;47.794;13.068;2023-05-07T01:13:53;0.80;;;0.80;;
4821;SDS011;2425;47.794;13.068;2023-05-07T01:16:20;1.13;;;1.13;;
4821;SDS011;2425;47.794;13.068;2023-05-07T01:18:48;0.80;;;0.80;;
4821;SDS011;2425;47.794;13.068;2023-05-07T01:21:15;1.13;;;1.13;;
4821;SDS011;2425;47.794;13.068;2023-05-07T01:23:44;0.90;;;0.90;;
4821;SDS011;2425;47.794;13.068;2023-05-07T01:26:11;0.87;;;0.87;;
4821;SDS011;2425;47.794;13.068;2023-05-07T01:28:37;1.33;;;1.33;;
4821;SDS011;2425;47.794;13.068;2023-05-07T01:31:04;1.20;;;1.20;;
4821;SDS011;2425;47.794;13.068;2023-05-07T01:33:31;1.57;;;1.20;;
4821;SDS011;2425;47.794;13.068;2023-05-07T01:36:00;1.00;;;1.00;;
4821;SDS011;2425;47.794;13.068;2023-05-07T01:38:28;1.00;;;1.00;;
4821;SDS011;2425;47.794;13.068;2023-05-07T01:40:57;1.10;;;1.10;;
4821;SDS011;2425;47.794;13.068;2023-05-07T01:43:24;0.90;;;0.90;;
4821;SDS011;2425;47.794;13.068;2023-05-07T01:45:50;0.90;;;0.90;;
4821;SDS011;2425;47.794;13.068;2023-05-07T01:48:17;0.80;;;0.80;;
4821;SDS011;2425;47.794;13.068;2023-05-07T01:50:44;0.97;;;0.97;;
4821;SDS011;2425;47.794;13.068;2023-05-07T01:53:11;0.90;;;0.90;;
4821;SDS011;2425;47.794;13.068;2023-05-07T01:55:38;1.30;;;1.30;;
4821;SDS011;2425;47.794;13.068;2023-05-07T01:58:06;1.20;;;1.20;;
4821;SDS011;2425;47.794;13.068;2023-05-07T02:00:33;1.13;;;1.13;;
4821;SDS011;2425;47.794;13.068;2023-05-07T02:03:00;1.00;;;1.00;;
4821;SDS011;2425;47.794;13.068;2023-05-07T02:05:26;1.10;;;1.10;;
4821;SDS011;2425;47.794;13.068;2023-05-07T02:07:53;1.07;;;1.07;;
4821;SDS011;2425;47.794;13.068;2023-05-07T02:10:20;1.00;;;1.00;;
4821;SDS011;2425;47.794;13.068;2023-05-07T02:12:46;0.97;;;0.97;;
4821;SDS011;2425;47.794;13.068;2023-05-07T02:15:14;0.80;;;0.80;;
4821;SDS011;2425;47.794;13.068;2023-05-07T02:20:26;0.83;;;0.83;;
4821;SDS011;2425;47.794;13.068;2023-05-07T02:22:53;1.07;;;1.07;;
4821;SDS011;2425;47.794;13.068;2023-05-07T02:25:19;1.00;;;1.00;;
4821;SDS011;2425;47.794;13.068;2023-05-07T02:27:46;1.03;;;0.93;;
4821;SDS011;2425;47.794;13.068;2023-05-07T02:30:14;0.87;;;0.87;;
4821;SDS011;2425;47.794;13.068;2023-05-07T02:32:41;0.90;;;0.90;;
4821;SDS011;2425;47.794;13.068;2023-05-07T02:35:09;1.10;;;1.10;;
4821;SDS011;2425;47.794;13.068;2023-05-07T02:37:36;1.00;;;1.00;;
4821;SDS011;2425;47.794;13.068;2023-05-07T02:40:03;0.70;;;0.70;;
4821;SDS011;2425;47.794;13.068;2023-05-07T02:42:31;0.90;;;0.90;;
4821;SDS011;2425;47.794;13.068;2023-05-07T02:44:57;0.70;;;0.70;;
4821;SDS011;2425;47.794;13.068;2023-05-07T02:47:25;0.90;;;0.90;;
4821;SDS011;2425;47.794;13.068;2023-05-07T02:49:53;0.90;;;0.90;;
4821;SDS011;2425;47.794;13.068;2023-05-07T02:52:20;0.80;;;0.80;;
4821;SDS011;2425;47.794;13.068;2023-05-07T02:54:47;0.83;;;0.83;;
4821;SDS011;2425;47.794;13.068;2023-05-07T02:57:13;0.90;;;0.90;;
4821;SDS011;2425;47.794;13.068;2023-05-07T02:59:41;0.80;;;0.80;;
4821;SDS011;2425;47.794;13.068;2023-05-07T03:02:08;0.90;;;0.90;;
4821;SDS011;2425;47.794;13.068;2023-05-07T03:04:36;0.90;;;0.90;;
4821;SDS011;2425;47.794;13.068;2023-05-07T03:07:02;0.90;;;0.90;;
4821;SDS011;2425;47.794;13.068;2023-05-07T03:09:29;1.00;;;1.00;;
4821;SDS011;2425;47.794;13.068;2023-05-07T03:11:56;0.83;;;0.83;;
4821;SDS011;2425;47.794;13.068;2023-05-07T03:14:23;0.80;;;0.80;;
4821;SDS011;2425;47.794;13.068;2023-05-07T03:16:49;1.00;;;1.00;;
4821;SDS011;2425;47.794;13.068;2023-05-07T03:19:16;0.80;;;0.80;;
4821;SDS011;2425;47.794;13.068;2023-05-07T03:21:44;0.90;;;0.90;;
4821;SDS011;2425;47.794;13.068;2023-05-07T03:24:11;0.93;;;0.93;;
4821;SDS011;2425;47.794;13.068;2023-05-07T03:26:37;0.90;;;0.90;;
4821;SDS011;2425;47.794;13.068;2023-05-07T03:29:04;0.83;;;0.83;;
4821;SDS011;2425;47.794;13.068;2023-05-07T03:31:31;0.80;;;0.80;;
4821;SDS011;2425;47.794;13.068;2023-05-07T03:33:58;2.70;;;0.73;;
4821;SDS011;2425;47.794;13.068;2023-05-07T03:36:25;0.77;;;0.77;;
4821;SDS011;2425;47.794;13.068;2023-05-07T03:38:54;0.80;;;0.80;;
4821;SDS011;2425;47.794;13.068;2023-05-07T03:41:20;0.80;;;0.80;;
4821;SDS011;2425;47.794;13.068;2023-05-07T03:43:47;0.80;;;0.80;;
4821;SDS011;2425;47.794;13.068;2023-05-07T03:46:14;0.90;;;0.90;;
4821;SDS011;2425;47.794;13.068;2023-05-07T03:48:40;0.80;;;0.80;;
4821;SDS011;2425;47.794;13.068;2023-05-07T03:51:07;0.90;;;0.90;;
4821;SDS011;2425;47.794;13.068;2023-05-07T03:53:34;0.80;;;0.80;;
4821;SDS011;2425;47.794;13.068;2023-05-07T03:56:02;0.90;;;0.90;;
4821;SDS011;2425;47.794;13.068;2023-05-07T03:58:29;0.67;;;0.67;;
4821;SDS011;2425;47.794;13.068;2023-05-07T04:00:56;0.93;;;0.93;;
4821;SDS011;2425;47.794;13.068;2023-05-07T04:03:23;0.77;;;0.77;;
4821;SDS011;2425;47.794;13.068;2023-05-07T04:05:50;0.70;;;0.70;;
4821;SDS011;2425;47.794;13.068;2023-05-07T04:08:16;0.80;;;0.80;;
4821;SDS011;2425;47.794;13.068;2023-05-07T04:10:43;0.93;;;0.93;;
4821;SDS011;2425;47.794;13.068;2023-05-07T04:13:11;0.80;;;0.80;;
4821;SDS011;2425;47.794;13.068;2023-05-07T04:15:38;0.97;;;0.97;;
4821;SDS011;2425;47.794;13.068;2023-05-07T04:18:04;0.70;;;0.70;;
4821;SDS011;2425;47.794;13.068;2023-05-07T04:20:33;0.80;;;0.80;;
4821;SDS011;2425;47.794;13.068;2023-05-07T04:23:01;1.00;;;1.00;;
4821;SDS011;2425;47.794;13.068;2023-05-07T04:25:28;0.90;;;0.90;;
4821;SDS011;2425;47.794;13.068;2023-05-07T04:27:54;0.90;;;0.90;;
4821;SDS011;2425;47.794;13.068;2023-05-07T04:30:22;1.13;;;1.13;;
4821;SDS011;2425;47.794;13.068;2023-05-07T04:32:49;0.60;;;0.60;;
4821;SDS011;2425;47.794;13.068;2023-05-07T04:35:16;0.80;;;0.80;;
4821;SDS011;2425;47.794;13.068;2023-05-07T04:37:43;0.63;;;0.63;;
4821;SDS011;2425;47.794;13.068;2023-05-07T04:40:10;0.83;;;0.83;;
4821;SDS011;2425;47.794;13.068;2023-05-07T04:42:37;1.00;;;1.00;;
4821;SDS011;2425;47.794;13.068;2023-05-07T04:45:04;0.73;;;0.73;;
4821;SDS011;2425;47.794;13.068;2023-05-07T04:47:32;0.83;;;0.83;;
4821;SDS011;2425;47.794;13.068;2023-05-07T04:49:59;0.70;;;0.70;;
4821;SDS011;2425;47.794;13.068;2023-05-07T04:52:26;0.80;;;0.80;;
4821;SDS011;2425;47.794;13.068;2023-05-07T04:54:52;0.73;;;0.73;;
4821;SDS011;2425;47.794;13.068;2023-05-07T04:57:19;0.80;;;0.80;;
4821;SDS011;2425;47.794;13.068;2023-05-07T04:59:46;0.80;;;0.80;;
4821;SDS011;2425;47.794;13.068;2023-05-07T05:02:16;0.80;;;0.80;;
4821;SDS011;2425;47.794;13.068;2023-05-07T05:05:05;0.80;;;0.80;;
4821;SDS011;2425;47.794;13.068;2023-05-07T05:07:38;0.90;;;0.90;;
4821;SDS011;2425;47.794;13.068;2023-05-07T05:10:05;0.70;;;0.70;;
4821;SDS011;2425;47.794;13.068;2023-05-07T05:12:32;0.70;;;0.70;;
4821;SDS011;2425;47.794;13.068;2023-05-07T05:14:59;1.00;;;0.73;;
4821;SDS011;2425;47.794;13.068;2023-05-07T05:17:26;0.80;;;0.80;;
4821;SDS011;2425;47.794;13.068;2023-05-07T05:19:52;0.80;;;0.80;;
4821;SDS011;2425;47.794;13.068;2023-05-07T05:22:20;0.73;;;0.73;;
4821;SDS011;2425;47.794;13.068;2023-05-07T05:24:47;0.77;;;0.77;;
4821;SDS011;2425;47.794;13.068;2023-05-07T05:27:14;0.70;;;0.70;;
4821;SDS011;2425;47.794;13.068;2023-05-07T05:29:40;0.70;;;0.70;;
4821;SDS011;2425;47.794;13.068;2023-05-07T05:32:07;0.93;;;0.93;;
4821;SDS011;2425;47.794;13.068;2023-05-07T05:34:34;0.70;;;0.70;;
4821;SDS011;2425;47.794;13.068;2023-05-07T05:37:00;0.50;;;0.50;;
4821;SDS011;2425;47.794;13.068;2023-05-07T05:39:29;0.80;;;0.80;;
4821;SDS011;2425;47.794;13.068;2023-05-07T05:41:55;0.80;;;0.80;;
4821;SDS011;2425;47.794;13.068;2023-05-07T05:44:22;0.70;;;0.70;;
4821;SDS011;2425;47.794;13.068;2023-05-07T05:46:49;0.60;;;0.60;;
4821;SDS011;2425;47.794;13.068;2023-05-07T05:49:15;0.70;;;0.70;;
4821;SDS011;2425;47.794;13.068;2023-05-07T05:51:42;0.80;;;0.80;;
4821;SDS011;2425;47.794;13.068;2023-05-07T05:54:09;0.70;;;0.70;;
4821;SDS011;2425;47.794;13.068;2023-05-07T05:56:37;1.07;;;1.07;;
4821;SDS011;2425;47.794;13.068;2023-05-07T05:59:04;0.70;;;0.70;;
4821;SDS011;2425;47.794;13.068;2023-05-07T06:01:31;0.70;;;0.70;;
4821;SDS011;2425;47.794;13.068;2023-05-07T06:03:58;0.70;;;0.70;;
4821;SDS011;2425;47.794;13.068;2023-05-07T06:06:24;0.60;;;0.60;;
4821;SDS011;2425;47.794;13.068;2023-05-07T06:08:52;0.70;;;0.70;;
4821;SDS011;2425;47.794;13.068;2023-05-07T06:11:19;0.63;;;0.63;;
4821;SDS011;2425;47.794;13.068;2023-05-07T06:13:47;0.60;;;0.60;;
4821;SDS011;2425;47.794;13.068;2023-05-07T06:16:14;0.70;;;0.70;;
4821;SDS011;2425;47.794;13.068;2023-05-07T06:18:41;1.10;;;1.00;;
4821;SDS011;2425;47.794;13.068;2023-05-07T06:21:07;0.60;;;0.60;;
4821;SDS011;2425;47.794;13.068;2023-05-07T06:23:35;0.50;;;0.50;;
4821;SDS011;2425;47.794;13.068;2023-05-07T06:26:02;0.63;;;0.63;;
4821;SDS011;2425;47.794;13.068;2023-05-07T06:28:29;0.53;;;0.53;;
4821;SDS011;2425;47.794;13.068;2023-05-07T06:31:11;0.50;;;0.50;;
4821;SDS011;2425;47.794;13.068;2023-05-07T06:33:39;0.60;;;0.60;;
4821;SDS011;2425;47.794;13.068;2023-05-07T06:36:06;0.87;;;0.87;;
4821;SDS011;2425;47.794;13.068;2023-05-07T06:38:33;0.50;;;0.50;;
4821;SDS011;2425;47.794;13.068;2023-05-07T06:40:59;0.70;;;0.70;;
4821;SDS011;2425;47.794;13.068;2023-05-07T06:43:26;0.80;;;0.80;;
4821;SDS011;2425;47.794;13.068;2023-05-07T06:45:53;0.70;;;0.70;;
4821;SDS011;2425;47.794;13.068;2023-05-07T06:48:21;0.80;;;0.80;;
4821;SDS011;2425;47.794;13.068;2023-05-07T06:50:47;0.60;;;0.60;;
4821;SDS011;2425;47.794;13.068;2023-05-07T06:53:14;0.70;;;0.70;;
4821;SDS011;2425;47.794;13.068;2023-05-07T06:55:41;0.70;;;0.70;;
4821;SDS011;2425;47.794;13.068;2023-05-07T06:58:08;1.40;;;1.40;;
4821;SDS011;2425;47.794;13.068;2023-05-07T07:00:34;1.20;;;1.20;;
4821;SDS011;2425;47.794;13.068;2023-05-07T07:03:02;1.60;;;1.43;;
4821;SDS011;2425;47.794;13.068;2023-05-07T07:05:34;6.47;;;1.37;;
4821;SDS011;2425;47.794;13.068;2023-05-07T07:08:00;1.20;;;1.20;;
4821;SDS011;2425;47.794;13.068;2023-05-07T07:10:27;1.20;;;1.20;;
4821;SDS011;2425;47.794;13.068;2023-05-07T07:12:54;1.87;;;1.50;;
4821;SDS011;2425;47.794;13.068;2023-05-07T07:15:21;2.93;;;1.90;;
4821;SDS011;2425;47.794;13.068;2023-05-07T07:17:50;1.70;;;1.60;;
4821;SDS011;2425;47.794;13.068;2023-05-07T07:20:16;4.10;;;1.70;;
4821;SDS011;2425;47.794;13.068;2023-05-07T07:22:45;1.77;;;1.77;;
4821;SDS011;2425;47.794;13.068;2023-05-07T07:25:11;3.50;;;1.90;;
4821;SDS011;2425;47.794;13.068;2023-05-07T07:27:38;2.73;;;1.77;;
4821;SDS011;2425;47.794;13.068;2023-05-07T07:30:06;3.67;;;1.83;;
4821;SDS011;2425;47.794;13.068;2023-05-07T07:32:34;3.50;;;2.33;;
4821;SDS011;2425;47.794;13.068;2023-05-07T07:35:01;3.40;;;2.03;;
4821;SDS011;2425;47.794;13.068;2023-05-07T07:37:27;2.30;;;2.10;;
4821;SDS011;2425;47.794;13.068;2023-05-07T07:39:56;3.50;;;1.90;;
4821;SDS011;2425;47.794;13.068;2023-05-07T07:42:23;2.03;;;1.93;;
4821;SDS011;2425;47.794;13.068;2023-05-07T07:44:49;2.43;;;2.23;;
4821;SDS011;2425;47.794;13.068;2023-05-07T07:47:16;2.33;;;1.87;;
4821;SDS011;2425;47.794;13.068;2023-05-07T07:49:43;2.30;;;2.10;;
4821;SDS011;2425;47.794;13.068;2023-05-07T07:52:09;2.27;;;1.73;;
4821;SDS011;2425;47.794;13.068;2023-05-07T07:54:36;4.53;;;2.30;;
4821;SDS011;2425;47.794;13.068;2023-05-07T07:57:04;2.20;;;2.10;;
4821;SDS011;2425;47.794;13.068;2023-05-07T07:59:31;4.90;;;1.90;;
4821;SDS011;2425;47.794;13.068;2023-05-07T08:01:58;2.07;;;1.60;;
4821;SDS011;2425;47.794;13.068;2023-05-07T08:04:24;3.93;;;1.87;;
4821;SDS011;2425;47.794;13.068;2023-05-07T08:06:51;1.57;;;1.57;;
4821;SDS011;2425;47.794;13.068;2023-05-07T08:09:19;2.33;;;1.70;;
4821;SDS011;2425;47.794;13.068;2023-05-07T08:11:46;2.77;;;2.00;;
4821;SDS011;2425;47.794;13.068;2023-05-07T08:14:14;2.63;;;2.33;;
4821;SDS011;2425;47.794;13.068;2023-05-07T08:16:41;3.70;;;2.03;;
4821;SDS011;2425;47.794;13.068;2023-05-07T08:19:08;1.80;;;1.70;;
4821;SDS011;2425;47.794;13.068;2023-05-07T08:21:38;1.63;;;1.53;;
4821;SDS011;2425;47.794;13.068;2023-05-07T08:24:05;2.07;;;1.87;;
4821;SDS011;2425;47.794;13.068;2023-05-07T08:26:32;1.77;;;1.67;;
4821;SDS011;2425;47.794;13.068;2023-05-07T08:29:00;2.67;;;1.93;;
4821;SDS011;2425;47.794;13.068;2023-05-07T08:31:29;1.90;;;1.80;;
4821;SDS011;2425;47.794;13.068;2023-05-07T08:33:55;1.37;;;1.37;;
4821;SDS011;2425;47.794;13.068;2023-05-07T08:36:22;1.90;;;1.53;;
4821;SDS011;2425;47.794;13.068;2023-05-07T08:38:49;2.17;;;2.07;;
4821;SDS011;2425;47.794;13.068;2023-05-07T08:41:16;1.80;;;1.70;;
4821;SDS011;2425;47.794;13.068;2023-05-07T08:43:42;2.17;;;1.90;;
4821;SDS011;2425;47.794;13.068;2023-05-07T08:46:15;2.20;;;2.10;;
4821;SDS011;2425;47.794;13.068;2023-05-07T08:48:45;1.80;;;1.70;;
4821;SDS011;2425;47.794;13.068;2023-05-07T08:51:12;2.93;;;1.70;;
4821;SDS011;2425;47.794;13.068;2023-05-07T08:53:39;2.03;;;1.93;;
4821;SDS011;2425;47.794;13.068;2023-05-07T08:56:06;1.83;;;1.73;;
4821;SDS011;2425;47.794;13.068;2023-05-07T08:58:34;1.97;;;1.87;;
4821;SDS011;2425;47.794;13.068;2023-05-07T09:01:01;1.70;;;1.60;;
4821;SDS011;2425;47.794;13.068;2023-05-07T09:03:30;1.50;;;1.50;;
4821;SDS011;2425;47.794;13.068;2023-05-07T09:05:58;2.50;;;2.40;;
4821;SDS011;2425;47.794;13.068;2023-05-07T09:08:25;3.53;;;2.63;;
4821;SDS011;2425;47.794;13.068;2023-05-07T09:10:52;4.10;;;2.30;;
4821;SDS011;2425;47.794;13.068;2023-05-07T09:13:19;2.07;;;1.97;;
4821;SDS011;2425;47.794;13.068;2023-05-07T09:15:46;3.40;;;2.20;;
4821;SDS011;2425;47.794;13.068;2023-05-07T09:18:13;5.80;;;2.40;;
4821;SDS011;2425;47.794;13.068;2023-05-07T09:20:40;2.47;;;2.27;;
4821;SDS011;2425;47.794;13.068;2023-05-07T09:23:08;3.47;;;2.30;;
4821;SDS011;2425;47.794;13.068;2023-05-07T09:25:35;4.83;;;2.30;;
4821;SDS011;2425;47.794;13.068;2023-05-07T09:28:03;2.27;;;2.17;;
4821;SDS011;2425;47.794;13.068;2023-05-07T09:30:31;2.27;;;2.17;;
4821;SDS011;2425;47.794;13.068;2023-05-07T09:32:59;3.00;;;2.40;;
4821;SDS011;2425;47.794;13.068;2023-05-07T09:35:26;2.40;;;2.30;;
4821;SDS011;2425;47.794;13.068;2023-05-07T09:37:53;2.60;;;2.40;;
4821;SDS011;2425;47.794;13.068;2023-05-07T09:40:22;2.40;;;2.30;;
4821;SDS011;2425;47.794;13.068;2023-05-07T09:42:49;2.17;;;2.07;;
4821;SDS011;2425;47.794;13.068;2023-05-07T09:45:16;2.20;;;2.10;;
4821;SDS011;2425;47.794;13.068;2023-05-07T09:47:47;2.87;;;2.67;;
4821;SDS011;2425;47.794;13.068;2023-05-07T09:50:16;2.27;;;2.17;;
4821;SDS011;2425;47.794;13.068;2023-05-07T09:52:43;2.40;;;2.30;;
4821;SDS011;2425;47.794;13.068;2023-05-07T09:55:10;2.33;;;2.23;;
4821;SDS011;2425;47.794;13.068;2023-05-07T09:57:39;4.13;;;2.03;;
4821;SDS011;2425;47.794;13.068;2023-05-07T10:00:06;2.57;;;2.37;;
4821;SDS011;2425;47.794;13.068;2023-05-07T10:02:35;2.07;;;1.97;;
4821;SDS011;2425;47.794;13.068;2023-05-07T10:05:02;2.20;;;2.10;;
4821;SDS011;2425;47.794;13.068;2023-05-07T10:07:29;2.13;;;2.03;;
4821;SDS011;2425;47.794;13.068;2023-05-07T10:09:56;2.40;;;2.20;;
4821;SDS011;2425;47.794;13.068;2023-05-07T10:12:24;1.67;;;1.67;;
4821;SDS011;2425;47.794;13.068;2023-05-07T10:14:52;2.20;;;2.10;;
4821;SDS011;2425;47.794;13.068;2023-05-07T10:17:20;2.50;;;2.27;;
4821;SDS011;2425;47.794;13.068;2023-05-07T10:19:49;4.77;;;2.30;;
4821;SDS011;2425;47.794;13.068;2023-05-07T10:22:17;2.70;;;2.60;;
4821;SDS011;2425;47.794;13.068;2023-05-07T10:24:44;2.03;;;1.93;;
4821;SDS011;2425;47.794;13.068;2023-05-07T10:27:13;2.30;;;2.20;;
4821;SDS011;2425;47.794;13.068;2023-05-07T10:29:43;1.83;;;1.80;;
4821;SDS011;2425;47.794;13.068;2023-05-07T10:32:27;2.33;;;2.23;;
4821;SDS011;2425;47.794;13.068;2023-05-07T10:35:04;1.97;;;1.93;;
4821;SDS011;2425;47.794;13.068;2023-05-07T10:37:34;2.13;;;2.03;;
4821;SDS011;2425;47.794;13.068;2023-05-07T10:40:01;2.47;;;2.27;;
4821;SDS011;2425;47.794;13.068;2023-05-07T10:42:29;2.50;;;1.70;;
4821;SDS011;2425;47.794;13.068;2023-05-07T10:44:55;2.13;;;2.03;;
4821;SDS011;2425;47.794;13.068;2023-05-07T10:47:24;2.07;;;1.97;;
4821;SDS011;2425;47.794;13.068;2023-05-07T10:55:47;1.77;;;1.77;;
4821;SDS011;2425;47.794;13.068;2023-05-07T10:58:23;2.13;;;2.03;;
4821;SDS011;2425;47.794;13.068;2023-05-07T11:00:55;2.07;;;1.97;;
4821;SDS011;2425;47.794;13.068;2023-05-07T11:03:24;1.70;;;1.70;;
4821;SDS011;2425;47.794;13.068;2023-05-07T11:06:08;2.23;;;2.23;;
4821;SDS011;2425;47.794;13.068;2023-05-07T11:08:54;1.97;;;1.97;;
4821;SDS011;2425;47.794;13.068;2023-05-07T11:14:13;2.47;;;2.27;;
4821;SDS011;2425;47.794;13.068;2023-05-07T11:16:40;1.80;;;1.70;;
4821;SDS011;2425;47.794;13.068;2023-05-07T11:19:09;1.70;;;1.60;;
4821;SDS011;2425;47.794;13.068;2023-05-07T11:21:36;1.70;;;1.70;;
4821;SDS011;2425;47.794;13.068;2023-05-07T11:24:05;2.17;;;2.10;;
4821;SDS011;2425;47.794;13.068;2023-05-07T11:26:41;1.87;;;1.77;;
4821;SDS011;2425;47.794;13.068;2023-05-07T11:29:12;1.80;;;1.70;;
4821;SDS011;2425;47.794;13.068;2023-05-07T11:31:40;1.97;;;1.87;;
4821;SDS011;2425;47.794;13.068;2023-05-07T11:34:07;2.27;;;2.17;;
4821;SDS011;2425;47.794;13.068;2023-05-07T11:36:36;3.10;;;2.47;;
4821;SDS011;2425;47.794;13.068;2023-05-07T11:42:03;2.47;;;2.27;;
4821;SDS011;2425;47.794;13.068;2023-05-07T11:44:42;2.47;;;2.37;;
4821;SDS011;2425;47.794;13.068;2023-05-07T11:47:10;2.33;;;2.23;;
4821;SDS011;2425;47.794;13.068;2023-05-07T11:49:37;2.00;;;2.00;;
4821;SDS011;2425;47.794;13.068;2023-05-07T11:52:07;2.00;;;1.90;;
4821;SDS011;2425;47.794;13.068;2023-05-07T11:54:36;1.73;;;1.73;;
4821;SDS011;2425;47.794;13.068;2023-05-07T11:57:03;2.10;;;2.00;;
4821;SDS011;2425;47.794;13.068;2023-05-07T11:59:30;3.07;;;2.03;;
4821;SDS011;2425;47.794;13.068;2023-05-07T12:02:05;1.70;;;1.70;;
4821;SDS011;2425;47.794;13.068;2023-05-07T12:04:32;2.30;;;2.20;;
4821;SDS011;2425;47.794;13.068;2023-05-07T12:06:58;1.47;;;1.47;;
4821;SDS011;2425;47.794;13.068;2023-05-07T12:09:27;1.87;;;1.87;;
4821;SDS011;2425;47.794;13.068;2023-05-07T12:11:54;2.20;;;2.10;;
4821;SDS011;2425;47.794;13.068;2023-05-07T12:14:21;1.90;;;1.80;;
4821;SDS011;2425;47.794;13.068;2023-05-07T12:16:48;1.77;;;1.77;;
4821;SDS011;2425;47.794;13.068;2023-05-07T12:19:14;1.87;;;1.77;;
4821;SDS011;2425;47.794;13.068;2023-05-07T12:21:41;2.07;;;1.90;;
4821;SDS011;2425;47.794;13.068;2023-05-07T12:24:08;1.67;;;1.67;;
4821;SDS011;2425;47.794;13.068;2023-05-07T12:26:38;1.70;;;1.60;;
4821;SDS011;2425;47.794;13.068;2023-05-07T12:29:05;1.90;;;1.80;;
4821;SDS011;2425;47.794;13.068;2023-05-07T12:31:32;1.90;;;1.87;;
4821;SDS011;2425;47.794;13.068;2023-05-07T12:33:59;1.97;;;1.87;;
4821;SDS011;2425;47.794;13.068;2023-05-07T12:36:25;1.90;;;1.90;;
4821;SDS011;2425;47.794;13.068;2023-05-07T12:38:52;2.03;;;1.97;;
4821;SDS011;2425;47.794;13.068;2023-05-07T12:41:20;1.87;;;1.77;;
4821;SDS011;2425;47.794;13.068;2023-05-07T12:43:53;1.90;;;1.90;;
4821;SDS011;2425;47.794;13.068;2023-05-07T12:46:22;2.00;;;1.80;;
4821;SDS011;2425;47.794;13.068;2023-05-07T12:48:49;2.20;;;2.00;;
4821;SDS011;2425;47.794;13.068;2023-05-07T12:51:16;1.60;;;1.60;;
4821;SDS011;2425;47.794;13.068;2023-05-07T12:53:43;1.67;;;1.57;;
4821;SDS011;2425;47.794;13.068;2023-05-07T12:56:10;2.10;;;2.00;;
4821;SDS011;2425;47.794;13.068;2023-05-07T12:58:36;2.13;;;2.03;;
4821;SDS011;2425;47.794;13.068;2023-05-07T13:01:05;2.33;;;2.23;;
4821;SDS011;2425;47.794;13.068;2023-05-07T13:03:35;1.63;;;1.63;;
4821;SDS011;2425;47.794;13.068;2023-05-07T13:06:03;1.80;;;1.70;;
4821;SDS011;2425;47.794;13.068;2023-05-07T13:08:31;2.30;;;1.90;;
4821;SDS011;2425;47.794;13.068;2023-05-07T13:11:00;2.10;;;1.80;;
4821;SDS011;2425;47.794;13.068;2023-05-07T13:13:28;2.30;;;2.10;;
4821;SDS011;2425;47.794;13.068;2023-05-07T13:15:55;1.90;;;1.80;;
4821;SDS011;2425;47.794;13.068;2023-05-07T13:18:23;3.30;;;1.87;;
4821;SDS011;2425;47.794;13.068;2023-05-07T13:20:50;2.20;;;2.03;;
4821;SDS011;2425;47.794;13.068;2023-05-07T13:23:17;1.70;;;1.70;;
4821;SDS011;2425;47.794;13.068;2023-05-07T13:25:44;2.10;;;2.00;;
4821;SDS011;2425;47.794;13.068;2023-05-07T13:28:10;2.23;;;2.13;;
4821;SDS011;2425;47.794;13.068;2023-05-07T13:30:37;2.20;;;2.10;;
4821;SDS011;2425;47.794;13.068;2023-05-07T13:33:05;2.40;;;2.30;;
4821;SDS011;2425;47.794;13.068;2023-05-07T13:35:34;3.47;;;3.17;;
4821;SDS011;2425;47.794;13.068;2023-05-07T13:38:01;3.00;;;2.80;;
4821;SDS011;2425;47.794;13.068;2023-05-07T13:40:27;12.93;;;3.30;;
4821;SDS011;2425;47.794;13.068;2023-05-07T13:42:56;3.37;;;2.73;;
4821;SDS011;2425;47.794;13.068;2023-05-07T13:45:23;2.83;;;2.63;;
4821;SDS011;2425;47.794;13.068;2023-05-07T13:47:50;2.90;;;2.70;;
4821;SDS011;2425;47.794;13.068;2023-05-07T13:50:17;2.73;;;2.53;;
4821;SDS011;2425;47.794;13.068;2023-05-07T13:52:45;4.67;;;2.63;;
4821;SDS011;2425;47.794;13.068;2023-05-07T13:55:15;2.97;;;2.60;;
4821;SDS011;2425;47.794;13.068;2023-05-07T13:57:42;4.90;;;2.70;;
4821;SDS011;2425;47.794;13.068;2023-05-07T14:00:09;3.43;;;2.80;;
4821;SDS011;2425;47.794;13.068;2023-05-07T14:02:37;2.47;;;2.37;;
4821;SDS011;2425;47.794;13.068;2023-05-07T14:05:04;5.63;;;3.03;;
4821;SDS011;2425;47.794;13.068;2023-05-07T14:07:31;2.47;;;2.37;;
4821;SDS011;2425;47.794;13.068;2023-05-07T14:09:59;3.30;;;2.80;;
4821;SDS011;2425;47.794;13.068;2023-05-07T14:12:26;2.40;;;2.30;;
4821;SDS011;2425;47.794;13.068;2023-05-07T14:14:52;2.67;;;2.40;;
4821;SDS011;2425;47.794;13.068;2023-05-07T14:17:19;6.53;;;3.10;;
4821;SDS011;2425;47.794;13.068;2023-05-07T14:19:48;2.50;;;2.10;;
4821;SDS011;2425;47.794;13.068;2023-05-07T14:22:14;2.33;;;2.20;;
4821;SDS011;2425;47.794;13.068;2023-05-07T14:24:41;6.03;;;2.40;;
4821;SDS011;2425;47.794;13.068;2023-05-07T14:27:09;4.63;;;2.47;;
4821;SDS011;2425;47.794;13.068;2023-05-07T14:29:36;2.97;;;2.43;;
4821;SDS011;2425;47.794;13.068;2023-05-07T14:32:03;3.20;;;2.30;;
4821;SDS011;2425;47.794;13.068;2023-05-07T14:34:31;1.97;;;1.97;;
4821;SDS011;2425;47.794;13.068;2023-05-07T14:36:58;3.00;;;2.47;;
4821;SDS011;2425;47.794;13.068;2023-05-07T14:39:25;4.13;;;2.20;;
4821;SDS011;2425;47.794;13.068;2023-05-07T14:41:52;3.13;;;2.30;;
4821;SDS011;2425;47.794;13.068;2023-05-07T14:44:22;2.50;;;2.20;;
4821;SDS011;2425;47.794;13.068;2023-05-07T14:46:49;3.27;;;2.03;;
4821;SDS011;2425;47.794;13.068;2023-05-07T14:49:15;2.67;;;2.23;;
4821;SDS011;2425;47.794;13.068;2023-05-07T14:51:43;2.67;;;2.50;;
4821;SDS011;2425;47.794;13.068;2023-05-07T14:54:10;2.03;;;1.93;;
4821;SDS011;2425;47.794;13.068;2023-05-07T14:56:37;2.30;;;2.20;;
4821;SDS011;2425;47.794;13.068;2023-05-07T14:59:04;4.07;;;2.67;;
4821;SDS011;2425;47.794;13.068;2023-05-07T15:01:32;2.37;;;2.23;;
4821;SDS011;2425;47.794;13.068;2023-05-07T15:03:59;2.83;;;2.20;;
4821;SDS011;2425;47.794;13.068;2023-05-07T15:06:26;2.13;;;2.00;;
4821;SDS011;2425;47.794;13.068;2023-05-07T15:08:53;2.23;;;2.13;;
4821;SDS011;2425;47.794;13.068;2023-05-07T15:11:19;2.23;;;2.13;;
4821;SDS011;2425;47.794;13.068;2023-05-07T15:13:46;3.03;;;2.37;;
4821;SDS011;2425;47.794;13.068;2023-05-07T15:16:13;2.13;;;2.07;;